Time;durP1;ratioP1;P1;durP2;ratioP2;P2;SDS_P1;SDS_P2;PMS_P1;PMS_P2;Temp;Humidity;BMP_temperature;BMP_pressure;BME280_temperature;BME280_humidity;BME280_pressure;Samples;Min_cycle;Max_cycle;Signal;HPM_P1;HPM_P2
2023/08/30 00:01:49;;;;;;;;;;;;;;;22.46;53.41;95058.25;10493811;28;1859;-75
2023/08/30 00:06:49;;;;;;;;;;;;;;;22.45;53.13;95051.41;10484363;28;2197;-76
2023/08/30 00:11:49;;;;;;;;;;;;;;;22.45;53.39;95051.41;10491305;28;1903;-75
2023/08/30 00:16:49;;;;;;;;;;;;;;;22.45;53.00;95050.63;10478748;28;1917;-76
2023/08/30 00:21:50;;;;;;;;;;;;;;;22.43;53.15;95045.66;10483582;28;1971;-75
2023/08/30 00:26:50;;;;;;;;;;;;;;;22.43;52.89;95050.94;10490881;28;2046;-75
2023/08/30 00:31:50;;;;;;;;;;;;;;;22.41;53.04;95053.09;10492537;28;1994;-73
2023/08/30 00:36:51;;;;;;;;;;;;;;;22.42;52.63;95049.38;10492418;28;1895;-75
2023/08/30 00:41:51;;;;;;;;;;;;;;;22.40;52.18;95054.16;10487980;28;1899;-75
2023/08/30 00:46:51;;;;;;;;;;;;;;;22.40;52.19;95048.88;10465216;28;1976;-75
2023/08/30 00:51:51;;;;;;;;;;;;;;;22.39;52.13;95051.84;10493806;28;1921;-75
2023/08/30 00:56:52;;;;;;;;;;;;;;;22.39;51.96;95046.56;10485753;28;2166;-75
2023/08/30 01:01:53;;;;;;;;;;;;;;;22.38;51.70;95045.00;10494230;28;1880;-74
2023/08/30 01:06:53;;;;;;;;;;;;;;;22.35;51.82;95043.75;10486820;28;1929;-75
2023/08/30 01:12:04;;;;;;;;;;;;;;;22.36;51.60;95047.19;10494777;28;2244;-74
2023/08/30 01:17:04;;;;;;;;;;;;;;;22.35;51.95;95048.25;10495916;28;1879;-74
2023/08/30 01:22:04;;;;;;;;;;;;;;;22.35;51.77;95050.88;10468165;28;2035;-74
2023/08/30 01:27:08;;;;;;;;;;;;;;;22.34;51.96;95044.81;10491899;28;1973;-74
2023/08/30 01:32:10;;;;;;;;;;;;;;;22.34;51.84;95038.78;10491734;28;2015;-74
2023/08/30 01:37:10;;;;;;;;;;;;;;;22.32;51.76;95044.34;10484901;28;1984;-75
2023/08/30 01:42:11;;;;;;;;;;;;;;;22.32;51.47;95044.34;10489714;28;4442;-75
2023/08/30 01:47:11;;;;;;;;;;;;;;;22.32;51.51;95046.19;10491078;28;2061;-75
2023/08/30 01:52:11;;;;;;;;;;;;;;;22.32;51.79;95041.69;10493540;28;1954;-75
2023/08/30 01:57:11;;;;;;;;;;;;;;;22.31;51.73;95037.50;10501189;28;1888;-76
2023/08/30 02:02:12;;;;;;;;;;;;;;;22.30;51.69;95038.56;10493869;28;1890;-75
2023/08/30 02:07:20;;;;;;;;;;;;;;;22.30;51.68;95035.94;10495032;28;2402;-74
2023/08/30 02:12:21;;;;;;;;;;;;;;;22.29;51.75;95039.66;10495554;28;2002;-75
2023/08/30 02:17:21;;;;;;;;;;;;;;;22.29;51.64;95034.38;10482618;28;1874;-75
2023/08/30 02:22:21;;;;;;;;;;;;;;;22.29;51.68;95037.03;10484523;28;1867;-75
2023/08/30 02:27:22;;;;;;;;;;;;;;;22.28;51.75;95029.38;10490853;28;2006;-76
2023/08/30 02:32:22;;;;;;;;;;;;;;;22.28;51.70;95030.19;10487998;28;1935;-75
2023/08/30 02:37:22;;;;;;;;;;;;;;;22.27;51.34;95033.91;10494460;28;1947;-76
2023/08/30 02:42:22;;;;;;;;;;;;;;;22.27;51.63;95033.91;10483468;28;4519;-75
2023/08/30 02:47:23;;;;;;;;;;;;;;;22.28;51.27;95037.31;10491841;28;1964;-75
2023/08/30 02:52:23;;;;;;;;;;;;;;;22.26;51.53;95040.25;10493441;28;1819;-76
2023/08/30 02:57:23;;;;;;;;;;;;;;;22.26;51.64;95042.91;10493619;28;1954;-76
2023/08/30 03:02:23;;;;;;;;;;;;;;;22.26;51.42;95042.13;10490888;28;2413;-75
2023/08/30 03:07:24;;;;;;;;;;;;;;;22.25;51.16;95035.28;10489875;28;1976;-75
2023/08/30 03:12:24;;;;;;;;;;;;;;;22.25;51.35;95041.34;10487033;28;1996;-75
2023/08/30 03:17:24;;;;;;;;;;;;;;;22.24;51.37;95034.50;10495824;28;1944;-75
2023/08/30 03:22:25;;;;;;;;;;;;;;;22.24;51.18;95028.44;10488945;28;1888;-75
2023/08/30 03:27:25;;;;;;;;;;;;;;;22.22;51.26;95028.75;10492903;28;1906;-75
2023/08/30 03:32:25;;;;;;;;;;;;;;;22.23;51.43;95021.59;10488469;28;1920;-75
2023/08/30 03:37:26;;;;;;;;;;;;;;;22.22;51.22;95026.09;10509922;28;1932;-74
2023/08/30 03:42:26;;;;;;;;;;;;;;;22.22;51.51;95034.03;10491168;28;4485;-75
2023/08/30 03:47:26;;;;;;;;;;;;;;;22.22;51.29;95030.59;10492650;28;1910;-75
2023/08/30 03:52:26;;;;;;;;;;;;;;;22.21;51.37;95034.34;10500658;28;1908;-75
2023/08/30 03:57:27;;;;;;;;;;;;;;;22.21;51.31;95026.41;10487866;28;2326;-75
2023/08/30 04:02:27;;;;;;;;;;;;;;;22.20;51.10;95028.25;10492628;28;1883;-75
2023/08/30 04:07:27;;;;;;;;;;;;;;;22.20;51.32;95030.91;10495329;28;1913;-76
2023/08/30 04:12:28;;;;;;;;;;;;;;;22.19;51.43;95032.00;10496747;28;1891;-75
2023/08/30 04:17:28;;;;;;;;;;;;;;;22.20;51.40;95033.53;10488676;28;1880;-75
2023/08/30 04:22:29;;;;;;;;;;;;;;;22.19;51.17;95037.28;10490741;28;1945;-75
2023/08/30 04:27:29;;;;;;;;;;;;;;;22.18;51.17;95038.34;10486758;28;1909;-75
2023/08/30 04:32:29;;;;;;;;;;;;;;;22.19;51.35;95036.50;10501412;28;1857;-75
2023/08/30 04:37:30;;;;;;;;;;;;;;;22.19;51.33;95039.13;10490333;28;1876;-75
2023/08/30 04:42:30;;;;;;;;;;;;;;;22.18;51.32;95034.91;10485477;28;4549;-76
2023/08/30 04:47:31;;;;;;;;;;;;;;;22.18;51.33;95035.69;10482917;28;1907;-75
2023/08/30 04:52:31;;;;;;;;;;;;;;;22.17;51.28;95031.53;10479530;28;2313;-75
2023/08/30 04:57:31;;;;;;;;;;;;;;;22.17;51.13;95036.00;10485921;28;2098;-76
2023/08/30 05:02:32;;;;;;;;;;;;;;;22.17;51.40;95039.44;10486172;28;1983;-76
2023/08/30 05:07:32;;;;;;;;;;;;;;;22.16;51.20;95045.00;10488785;28;1902;-76
2023/08/30 05:12:35;;;;;;;;;;;;;;;22.17;51.12;95047.34;10492367;28;1854;-77
2023/08/30 05:17:35;;;;;;;;;;;;;;;22.15;51.14;95046.88;10484484;28;1891;-76
2023/08/30 05:22:35;;;;;;;;;;;;;;;22.15;51.02;95044.25;10483219;28;1976;-77
2023/08/30 05:27:36;;;;;;;;;;;;;;;22.15;51.20;95046.09;10481805;28;1912;-76
2023/08/30 05:32:36;;;;;;;;;;;;;;;22.15;50.87;95059.28;10481734;28;1878;-75
2023/08/30 05:37:36;;;;;;;;;;;;;;;22.14;51.00;95055.88;10484773;28;1808;-75
2023/08/30 05:42:37;;;;;;;;;;;;;;;22.14;51.10;95053.22;10486125;28;4620;-69
2023/08/30 05:47:37;;;;;;;;;;;;;;;22.14;51.29;95039.25;10483448;28;1906;-68
2023/08/30 05:52:41;;;;;;;;;;;;;;;22.15;51.09;95046.88;10477358;28;2231;-68
2023/08/30 05:57:41;;;;;;;;;;;;;;;22.13;51.30;95042.97;10470327;28;2039;-66
2023/08/30 06:02:41;;;;;;;;;;;;;;;22.10;51.57;95052.25;10479580;28;1965;-67
2023/08/30 06:07:41;;;;;;;;;;;;;;;22.08;51.54;95051.78;10472925;28;2045;-67
2023/08/30 06:12:42;;;;;;;;;;;;;;;22.06;51.27;95056.59;10473194;28;1938;-67
2023/08/30 06:17:42;;;;;;;;;;;;;;;22.04;51.04;95050.03;10480094;28;1968;-67
2023/08/30 06:22:42;;;;;;;;;;;;;;;22.03;51.17;95059.03;10487410;28;2017;-67
2023/08/30 06:27:54;;;;;;;;;;;;;;;22.00;51.13;95068.34;10476865;28;2172;-67
2023/08/30 06:32:55;;;;;;;;;;;;;;;21.98;51.03;95061.78;10483687;28;1943;-67
2023/08/30 06:37:55;;;;;;;;;;;;;;;21.96;50.72;95059.44;10485583;28;2001;-67
2023/08/30 06:42:56;;;;;;;;;;;;;;;21.92;50.68;95049.78;10491074;28;1971;-68
2023/08/30 06:47:57;;;;;;;;;;;;;;;21.91;50.48;95053.53;10491447;28;2287;-67
2023/08/30 06:52:57;;;;;;;;;;;;;;;21.90;50.48;95055.38;10495285;28;1879;-67
2023/08/30 06:57:57;;;;;;;;;;;;;;;21.88;50.61;95054.88;10473863;28;2035;-67
2023/08/30 07:02:57;;;;;;;;;;;;;;;21.86;50.47;95062.31;10484138;28;2095;-73
2023/08/30 07:07:58;;;;;;;;;;;;;;;21.85;50.28;95058.09;10472571;28;1959;-71
2023/08/30 07:12:58;;;;;;;;;;;;;;;21.83;50.20;95057.63;10486209;28;1964;-67
2023/08/30 07:17:58;;;;;;;;;;;;;;;21.84;50.39;95051.28;10487654;28;1876;-66
2023/08/30 07:22:59;;;;;;;;;;;;;;;21.88;50.43;95047.72;10485099;28;1978;-65
2023/08/30 07:27:59;;;;;;;;;;;;;;;21.89;50.93;95059.06;10481559;28;1981;-70
2023/08/30 07:32:59;;;;;;;;;;;;;;;21.92;50.74;95057.69;10493924;28;1794;-66
2023/08/30 07:38:00;;;;;;;;;;;;;;;21.92;50.75;95047.94;10494110;28;1831;-65
2023/08/30 07:43:00;;;;;;;;;;;;;;;21.95;50.91;95054.47;10490032;28;4497;-66
2023/08/30 07:48:00;;;;;;;;;;;;;;;21.95;50.98;95057.88;10492317;28;1910;-66
2023/08/30 07:53:00;;;;;;;;;;;;;;;21.96;51.10;95066.59;10495391;28;1935;-67
2023/08/30 07:58:01;;;;;;;;;;;;;;;21.96;51.05;95075.28;10490664;28;1899;-65
2023/08/30 08:03:02;;;;;;;;;;;;;;;21.98;50.97;95078.41;10485850;28;1950;-66
2023/08/30 08:08:02;;;;;;;;;;;;;;;21.99;51.15;95076.56;10496922;28;1902;-65
2023/08/30 08:13:03;;;;;;;;;;;;;;;21.98;51.11;95073.13;10483549;28;2099;-66
2023/08/30 08:18:04;;;;;;;;;;;;;;;22.00;51.17;95081.53;10481691;28;1901;-69
2023/08/30 08:23:04;;;;;;;;;;;;;;;21.99;51.03;95079.94;10493232;28;1789;-66
2023/08/30 08:28:04;;;;;;;;;;;;;;;22.01;50.96;95083.06;10480583;28;2396;-65
2023/08/30 08:33:07;;;;;;;;;;;;;;;22.01;51.15;95083.06;10490057;28;2259;-64
2023/08/30 08:38:07;;;;;;;;;;;;;;;22.03;51.00;95085.44;10481495;28;2361;-64
2023/08/30 08:43:09;;;;;;;;;;;;;;;22.02;51.10;95076.72;10482043;28;4459;-63
2023/08/30 08:48:09;;;;;;;;;;;;;;;22.03;51.21;95078.28;10486416;28;1973;-64
2023/08/30 08:53:10;;;;;;;;;;;;;;;22.05;51.27;95073.47;10463497;28;1967;-64
2023/08/30 08:58:10;;;;;;;;;;;;;;;22.04;51.33;95065.88;10494772;28;2316;-64
2023/08/30 09:03:11;;;;;;;;;;;;;;;22.05;51.31;95073.47;10481696;28;2057;-63
2023/08/30 09:08:11;;;;;;;;;;;;;;;22.07;51.02;95066.03;10474522;28;1978;-64
2023/08/30 09:13:11;;;;;;;;;;;;;;;22.08;51.42;95066.84;10489081;28;1926;-63
2023/08/30 09:18:16;;;;;;;;;;;;;;;22.06;51.45;95053.94;10482006;28;1879;-63
2023/08/30 09:23:20;;;;;;;;;;;;;;;22.08;51.37;95051.78;10493367;28;1864;-63
2023/08/30 09:28:21;;;;;;;;;;;;;;;22.07;51.45;95052.84;10495862;28;1911;-63
2023/08/30 09:33:34;;;;;;;;;;;;;;;22.07;51.42;95050.22;10484274;28;1860;-63
2023/08/30 09:38:34;;;;;;;;;;;;;;;22.08;51.41;95045.72;10491294;28;1883;-62
2023/08/30 09:43:34;;;;;;;;;;;;;;;22.08;51.19;95046.50;10495127;28;4499;-63
2023/08/30 09:48:34;;;;;;;;;;;;;;;22.08;51.63;95046.50;10496734;28;1927;-64
2023/08/30 09:53:36;;;;;;;;;;;;;;;22.10;51.36;95041.69;10480577;28;1816;-64
2023/08/30 09:58:37;;;;;;;;;;;;;;;22.10;50.70;95033.78;10487619;28;1996;-65
2023/08/30 10:03:37;;;;;;;;;;;;;;;21.95;49.92;95025.47;10459790;28;1854;-64
2023/08/30 10:08:39;;;;;;;;;;;;;;;21.93;49.97;95022.34;10477931;28;1963;-62
2023/08/30 10:13:39;;;;;;;;;;;;;;;21.89;49.81;95016.84;10481935;28;1815;-63
2023/08/30 10:18:42;;;;;;;;;;;;;;;21.88;50.02;95010.03;10494082;28;1879;-65
2023/08/30 10:23:42;;;;;;;;;;;;;;;21.91;50.81;95014.69;10469438;28;1887;-64
2023/08/30 10:28:42;;;;;;;;;;;;;;;21.95;50.81;95005.09;10507578;28;1975;-62
2023/08/30 10:33:49;;;;;;;;;;;;;;;21.97;50.85;95015.38;10498741;28;2467;-62
2023/08/30 10:38:49;;;;;;;;;;;;;;;21.98;51.04;95020.34;10488030;28;1875;-63
2023/08/30 10:43:51;;;;;;;;;;;;;;;21.98;51.18;95003.72;10481576;28;4576;-63
2023/08/30 10:48:52;;;;;;;;;;;;;;;21.99;51.27;95008.69;10486996;28;2001;-62
2023/08/30 10:53:58;;;;;;;;;;;;;;;22.01;51.23;95003.16;10491611;28;1930;-63
2023/08/30 10:59:01;;;;;;;;;;;;;;;22.02;51.23;95004.69;10501878;28;1998;-62
2023/08/30 11:04:01;;;;;;;;;;;;;;;22.03;51.04;95001.75;10478879;28;1902;-62
2023/08/30 11:09:03;;;;;;;;;;;;;;;22.04;51.08;94997.25;10493286;28;1915;-61
2023/08/30 11:14:04;;;;;;;;;;;;;;;22.03;51.41;94999.09;10497483;28;2004;-63
2023/08/30 11:19:04;;;;;;;;;;;;;;;22.05;51.23;94994.31;10497956;28;1962;-63
2023/08/30 11:24:05;;;;;;;;;;;;;;;22.07;50.97;95002.69;10488498;28;1980;-63
2023/08/30 11:29:08;;;;;;;;;;;;;;;22.09;51.35;94995.25;10477435;28;2461;-63
2023/08/30 11:34:08;;;;;;;;;;;;;;;22.11;51.16;94987.84;10490606;28;1876;-62
2023/08/30 11:39:10;;;;;;;;;;;;;;;22.11;51.06;94977.28;10488867;28;2007;-62
2023/08/30 11:44:11;;;;;;;;;;;;;;;22.11;51.12;94977.28;10490511;28;1992;-63
2023/08/30 11:49:11;;;;;;;;;;;;;;;22.12;51.36;94978.84;10487727;28;1937;-63
2023/08/30 11:54:11;;;;;;;;;;;;;;;22.12;51.44;94978.06;10492240;28;1842;-63
2023/08/30 11:59:19;;;;;;;;;;;;;;;22.11;50.97;94973.88;10499610;28;1888;-63
2023/08/30 12:04:19;;;;;;;;;;;;;;;22.11;51.24;94973.88;10484338;28;1967;-64
2023/08/30 12:09:23;;;;;;;;;;;;;;;22.10;51.49;94974.94;10491443;28;2083;-63
2023/08/30 12:14:32;;;;;;;;;;;;;;;22.11;51.48;94982.56;10486839;28;1847;-63
2023/08/30 12:19:32;;;;;;;;;;;;;;;22.09;51.56;94963.59;10481891;28;2045;-63
2023/08/30 12:24:45;;;;;;;;;;;;;;;22.09;51.42;94954.91;10492730;28;2365;-63
2023/08/30 12:29:45;;;;;;;;;;;;;;;22.06;51.20;94956.28;10491621;28;1820;-63
2023/08/30 12:34:45;;;;;;;;;;;;;;;22.10;51.47;94959.88;10467123;28;1874;-62
2023/08/30 12:39:45;;;;;;;;;;;;;;;22.09;51.32;94958.31;10484608;28;2000;-63
2023/08/30 12:44:46;;;;;;;;;;;;;;;22.09;51.60;94958.31;10492705;28;4485;-62
2023/08/30 12:49:46;;;;;;;;;;;;;;;22.10;51.47;94959.88;10486826;28;1903;-62
2023/08/30 12:54:47;;;;;;;;;;;;;;;22.11;51.48;94958.03;10492743;28;1983;-62
2023/08/30 12:59:48;;;;;;;;;;;;;;;22.11;51.47;94953.53;10485928;28;1871;-66
2023/08/30 13:04:48;;;;;;;;;;;;;;;22.13;51.52;94950.59;10488976;28;1971;-66
2023/08/30 13:09:48;;;;;;;;;;;;;;;22.13;51.82;94938.19;10490135;28;1891;-65
2023/08/30 13:14:50;;;;;;;;;;;;;;;22.15;52.02;94946.56;10484498;28;1890;-65
2023/08/30 13:19:50;;;;;;;;;;;;;;;22.16;51.56;94940.19;10485619;28;2294;-64
2023/08/30 13:24:51;;;;;;;;;;;;;;;22.17;51.98;94946.25;10488915;28;1994;-65
2023/08/30 13:29:52;;;;;;;;;;;;;;;22.17;51.76;94954.97;10488044;28;1857;-65
2023/08/30 13:34:52;;;;;;;;;;;;;;;22.16;51.77;94956.03;10480630;28;2073;-65
2023/08/30 13:39:53;;;;;;;;;;;;;;;22.16;51.73;94953.41;10487753;28;1915;-66
2023/08/30 13:44:54;;;;;;;;;;;;;;;22.16;51.91;94950.75;10487407;28;4556;-66
2023/08/30 13:49:54;;;;;;;;;;;;;;;22.18;51.77;94956.50;10491033;28;1825;-64
2023/08/30 13:54:55;;;;;;;;;;;;;;;22.17;52.02;94965.53;10499128;28;1824;-67
2023/08/30 13:59:55;;;;;;;;;;;;;;;22.17;51.72;94957.59;10499178;28;1967;-67
2023/08/30 14:04:55;;;;;;;;;;;;;;;22.17;52.23;94965.53;10503153;28;1975;-67
2023/08/30 14:09:55;;;;;;;;;;;;;;;22.16;52.20;94969.22;10495951;28;1902;-71
2023/08/30 14:14:55;;;;;;;;;;;;;;;22.17;52.01;94975.28;10495025;28;2259;-72
2023/08/30 14:19:56;;;;;;;;;;;;;;;22.17;51.87;94975.28;10487702;28;2197;-68
2023/08/30 14:24:56;;;;;;;;;;;;;;;22.15;52.09;94972.97;10502878;28;1901;-72
2023/08/30 14:29:56;;;;;;;;;;;;;;;22.16;51.82;94977.16;10494863;28;1824;-69
2023/08/30 14:34:57;;;;;;;;;;;;;;;22.17;51.83;94972.66;10487274;28;1914;-69
2023/08/30 14:39:57;;;;;;;;;;;;;;;22.16;51.80;94974.50;10494570;28;1898;-69
2023/08/30 14:44:57;;;;;;;;;;;;;;;22.18;52.13;94976.84;10475491;28;4494;-67
2023/08/30 14:49:57;;;;;;;;;;;;;;;22.17;52.41;94976.09;10494517;28;1847;-66
2023/08/30 14:54:58;;;;;;;;;;;;;;;22.17;51.93;94965.53;10485921;28;1900;-67
2023/08/30 14:59:58;;;;;;;;;;;;;;;22.17;51.96;94970.81;10477970;28;1895;-70
2023/08/30 15:04:58;;;;;;;;;;;;;;;22.19;52.01;94968.66;10493976;28;1895;-71
2023/08/30 15:09:58;;;;;;;;;;;;;;;22.21;52.19;94966.47;10496974;28;1887;-66
2023/08/30 15:14:59;;;;;;;;;;;;;;;22.19;52.22;94971.28;10495786;28;2403;-66
2023/08/30 15:19:59;;;;;;;;;;;;;;;22.17;52.29;94962.09;10500711;28;1822;-66
2023/08/30 15:25:01;;;;;;;;;;;;;;;22.18;52.25;94964.44;10496889;28;1909;-66
2023/08/30 15:30:02;;;;;;;;;;;;;;;22.18;52.09;94959.16;10496997;28;1756;-66
2023/08/30 15:35:03;;;;;;;;;;;;;;;22.17;51.98;94968.16;10469119;28;1844;-66
2023/08/30 15:40:04;;;;;;;;;;;;;;;22.18;52.01;94968.94;10485075;28;1883;-66
2023/08/30 15:45:04;;;;;;;;;;;;;;;22.16;52.23;94969.22;10486077;28;4759;-66
2023/08/30 15:50:06;;;;;;;;;;;;;;;22.16;51.91;94966.59;10491961;28;1828;-66
2023/08/30 15:55:06;;;;;;;;;;;;;;;22.16;52.21;94966.59;10475829;28;1908;-66
2023/08/30 16:00:07;;;;;;;;;;;;;;;22.17;52.28;94970.81;10469862;28;1796;-66
2023/08/30 16:05:07;;;;;;;;;;;;;;;22.16;51.92;94973.72;10487466;28;1977;-67
2023/08/30 16:10:08;;;;;;;;;;;;;;;22.15;51.86;94978.25;10489203;28;1891;-66
2023/08/30 16:15:09;;;;;;;;;;;;;;;22.16;52.20;94976.38;10495776;28;1828;-66
2023/08/30 16:20:10;;;;;;;;;;;;;;;22.13;52.19;94967.22;10490052;28;1887;-66
2023/08/30 16:25:10;;;;;;;;;;;;;;;22.14;52.11;94966.13;10498877;28;2005;-66
2023/08/30 16:30:11;;;;;;;;;;;;;;;22.14;52.16;94966.13;10489157;28;1805;-67
2023/08/30 16:35:11;;;;;;;;;;;;;;;22.13;51.95;94980.41;10491653;28;1743;-66
2023/08/30 16:40:11;;;;;;;;;;;;;;;22.12;52.08;94976.19;10484592;28;1824;-66
2023/08/30 16:45:11;;;;;;;;;;;;;;;22.11;52.06;94972.00;10494967;28;4573;-65
2023/08/30 16:50:12;;;;;;;;;;;;;;;22.11;52.06;94984.44;10482990;28;1804;-65
2023/08/30 16:55:12;;;;;;;;;;;;;;;22.11;51.79;94984.44;10481206;28;1840;-65
2023/08/30 17:00:12;;;;;;;;;;;;;;;22.11;51.78;94984.44;10487088;28;1891;-65
2023/08/30 17:05:13;;;;;;;;;;;;;;;22.10;51.74;94980.22;10483570;28;2330;-65
2023/08/30 17:10:13;;;;;;;;;;;;;;;22.10;52.05;94996.03;10494221;28;1828;-65
2023/08/30 17:15:13;;;;;;;;;;;;;;;22.08;51.99;94999.00;10485287;28;1808;-65
2023/08/30 17:20:13;;;;;;;;;;;;;;;22.09;51.67;94987.34;10487954;28;2134;-70
2023/08/30 17:25:14;;;;;;;;;;;;;;;22.09;51.91;94997.91;10485125;28;1985;-68
2023/08/30 17:30:16;;;;;;;;;;;;;;;22.09;52.06;95008.47;10485087;28;1921;-66
2023/08/30 17:35:16;;;;;;;;;;;;;;;22.13;51.72;95009.44;10488508;28;1927;-66
2023/08/30 17:40:16;;;;;;;;;;;;;;;22.16;51.60;95003.53;10488249;28;1861;-68
2023/08/30 17:45:17;;;;;;;;;;;;;;;22.20;51.60;94998.44;10492761;28;4564;-67
2023/08/30 17:50:17;;;;;;;;;;;;;;;22.24;51.49;95000.19;10484890;28;1843;-67
2023/08/30 17:55:17;;;;;;;;;;;;;;;22.25;51.56;95004.41;10492092;28;1876;-68
2023/08/30 18:00:20;;;;;;;;;;;;;;;22.28;51.14;95003.78;10484012;28;2536;-68
2023/08/30 18:05:21;;;;;;;;;;;;;;;22.29;51.42;95010.63;10485670;28;1938;-66
2023/08/30 18:10:22;;;;;;;;;;;;;;;22.32;51.33;95019.78;10494154;28;1838;-65
2023/08/30 18:15:22;;;;;;;;;;;;;;;22.33;51.14;95030.06;10493150;28;1885;-65
2023/08/30 18:20:24;;;;;;;;;;;;;;;22.38;50.72;95032.56;10490766;28;1903;-65
2023/08/30 18:25:24;;;;;;;;;;;;;;;22.39;51.21;95033.34;10474759;28;1973;-65
2023/08/30 18:30:24;;;;;;;;;;;;;;;22.40;50.67;95040.22;10491292;28;1828;-65
2023/08/30 18:35:25;;;;;;;;;;;;;;;22.42;50.53;95044.09;10469979;28;1879;-65
2023/08/30 18:40:25;;;;;;;;;;;;;;;22.41;50.98;95042.53;10497915;28;1847;-65
2023/08/30 18:45:26;;;;;;;;;;;;;;;22.40;50.72;95050.78;10496977;28;4862;-65
2023/08/30 18:50:26;;;;;;;;;;;;;;;22.41;50.70;95050.47;10489623;28;1929;-65
2023/08/30 18:55:32;;;;;;;;;;;;;;;22.44;50.45;95060.41;10493344;28;1875;-65
2023/08/30 19:00:32;;;;;;;;;;;;;;;22.45;50.53;95061.97;10495304;28;2413;-66
2023/08/30 19:05:33;;;;;;;;;;;;;;;22.46;50.59;95071.44;10499015;28;2091;-65
2023/08/30 19:10:33;;;;;;;;;;;;;;;22.45;50.38;95069.91;10486077;28;1923;-66
2023/08/30 19:15:33;;;;;;;;;;;;;;;22.44;50.67;95073.59;10495203;28;1894;-65
2023/08/30 19:20:33;;;;;;;;;;;;;;;22.45;50.47;95077.03;10490663;28;1966;-68
2023/08/30 19:25:34;;;;;;;;;;;;;;;22.44;50.56;95081.53;10498065;28;1909;-66
2023/08/30 19:30:34;;;;;;;;;;;;;;;22.46;50.47;95087.28;10487632;28;1833;-67
2023/08/30 19:35:34;;;;;;;;;;;;;;;22.45;50.46;95085.75;10487418;28;1911;-69
2023/08/30 19:40:35;;;;;;;;;;;;;;;22.44;50.45;95086.06;10487489;28;2127;-69
2023/08/30 19:45:35;;;;;;;;;;;;;;;22.45;50.67;95085.75;10491497;28;4798;-70
2023/08/30 19:50:36;;;;;;;;;;;;;;;22.45;50.23;95091.03;10495284;28;1992;-69
2023/08/30 19:55:36;;;;;;;;;;;;;;;22.49;50.06;95093.84;10492919;28;2327;-70
2023/08/30 20:00:37;;;;;;;;;;;;;;;22.49;49.97;95086.72;10495668;28;1823;-70
2023/08/30 20:05:42;;;;;;;;;;;;;;;22.46;50.37;95094.47;10473783;28;1906;-69
2023/08/30 20:10:43;;;;;;;;;;;;;;;22.42;50.73;95088.97;10483491;28;1887;-69
2023/08/30 20:15:43;;;;;;;;;;;;;;;22.45;50.17;95092.88;10490341;28;1844;-69
2023/08/30 20:20:43;;;;;;;;;;;;;;;22.44;50.42;95089.47;10477796;28;1846;-70
2023/08/30 20:25:43;;;;;;;;;;;;;;;22.44;50.18;95089.47;10480199;28;1977;-69
2023/08/30 20:30:50;;;;;;;;;;;;;;;22.43;50.20;95085.28;10459057;28;1829;-70
2023/08/30 20:35:50;;;;;;;;;;;;;;;22.46;50.16;95081.25;10469736;28;1867;-72
2023/08/30 20:40:51;;;;;;;;;;;;;;;22.45;50.03;95085.75;10490082;28;4465;-69
2023/08/30 20:45:53;;;;;;;;;;;;;;;22.44;50.31;95078.91;10479751;28;1909;-70
2023/08/30 20:50:57;;;;;;;;;;;;;;;22.45;49.88;95084.97;10478866;28;2156;-70
2023/08/30 20:55:57;;;;;;;;;;;;;;;22.42;50.23;95078.41;10484378;28;1816;-73
2023/08/30 21:00:58;;;;;;;;;;;;;;;22.43;50.10;95089.75;10501567;28;1806;-69
2023/08/30 21:05:58;;;;;;;;;;;;;;;22.42;50.25;95081.06;10501984;28;1980;-69
2023/08/30 21:10:58;;;;;;;;;;;;;;;22.42;50.32;95088.97;10485533;28;1843;-67
2023/08/30 21:15:58;;;;;;;;;;;;;;;22.42;50.32;95088.22;10478408;28;1830;-69
2023/08/30 21:20:59;;;;;;;;;;;;;;;22.51;49.33;95073.19;10475875;28;1840;-76
2023/08/30 21:25:59;;;;;;;;;;;;;;;22.44;48.82;95073.59;10495216;28;1960;-71
2023/08/30 21:30:59;;;;;;;;;;;;;;;22.40;48.40;95079.81;10487413;28;1884;-69
2023/08/30 21:36:00;;;;;;;;;;;;;;;22.34;48.28;95081.03;10481787;28;2012;-68
2023/08/30 21:41:00;;;;;;;;;;;;;;;22.31;47.98;95071.84;10484744;28;4563;-70
2023/08/30 21:46:00;;;;;;;;;;;;;;;22.24;48.06;95075.94;10481586;28;2274;-68
2023/08/30 21:51:01;;;;;;;;;;;;;;;22.17;48.03;95079.03;10483027;28;1844;-71
2023/08/30 21:56:02;;;;;;;;;;;;;;;22.18;48.45;95072.66;10484228;28;1886;-70
2023/08/30 22:01:03;;;;;;;;;;;;;;;22.09;48.62;95077.09;10476823;28;1876;-77
2023/08/30 22:06:05;;;;;;;;;;;;;;;22.02;48.38;95073.31;10486546;28;1910;-67
2023/08/30 22:11:09;;;;;;;;;;;;;;;21.99;48.33;95079.94;10487185;28;1965;-67
2023/08/30 22:16:09;;;;;;;;;;;;;;;21.95;48.64;95089.53;10499649;28;1777;-67
2023/08/30 22:21:09;;;;;;;;;;;;;;;21.87;48.47;95095.53;10481674;28;1844;-67
2023/08/30 22:26:09;;;;;;;;;;;;;;;21.82;48.49;95100.94;10506321;28;1973;-67
2023/08/30 22:31:10;;;;;;;;;;;;;;;21.80;48.50;95110.97;10501507;28;1847;-67
2023/08/30 22:36:11;;;;;;;;;;;;;;;21.76;48.27;95102.09;10492987;28;1796;-67
2023/08/30 22:41:11;;;;;;;;;;;;;;;21.71;48.38;95102.97;10482591;28;4680;-67
2023/08/30 22:46:11;;;;;;;;;;;;;;;21.69;48.07;95097.22;10488515;28;1910;-66
2023/08/30 22:51:12;;;;;;;;;;;;;;;21.65;48.29;95098.88;10501523;28;1603;-67
2023/08/30 22:56:12;;;;;;;;;;;;;;;21.64;48.18;95099.16;10491517;28;1835;-67
2023/08/30 23:01:14;;;;;;;;;;;;;;;21.61;47.90;95107.66;10492361;28;1867;-67
2023/08/30 23:06:15;;;;;;;;;;;;;;;21.58;47.80;95101.13;10496209;28;1981;-67
2023/08/30 23:11:16;;;;;;;;;;;;;;;21.57;48.25;95098.78;10496343;28;1788;-67
2023/08/30 23:16:16;;;;;;;;;;;;;;;21.55;47.94;95100.94;10496008;28;1777;-67
2023/08/30 23:21:16;;;;;;;;;;;;;;;21.55;47.80;95108.84;10503077;28;1804;-67
2023/08/30 23:26:17;;;;;;;;;;;;;;;21.53;48.07;95108.38;10492071;28;1965;-66
2023/08/30 23:31:17;;;;;;;;;;;;;;;21.50;48.15;95114.22;10502779;28;1861;-66
2023/08/30 23:36:21;;;;;;;;;;;;;;;21.50;47.85;95106.31;10479627;28;1864;-65
2023/08/30 23:41:21;;;;;;;;;;;;;;;21.49;47.95;95112.66;10490365;28;4469;-67
2023/08/30 23:46:21;;;;;;;;;;;;;;;21.47;47.82;95110.34;10491590;28;1910;-66
2023/08/30 23:51:21;;;;;;;;;;;;;;;21.45;48.03;95109.06;10498125;28;1875;-67
2023/08/30 23:56:22;;;;;;;;;;;;;;;21.41;47.88;95111.47;10475880;28;1867;-67
